• Join FlightAware (Why Join?)
  • Login
  • US Flag 
09:11AM EDT


 

Airport Tracker/Info


-or-


 

Live Flight TrackerFlight Track Log ✈ TAM8015 ✈ 12-May-2013 ✈ SABE / AEP - SBGR / GRU

Flight Track Log - Related Links

Times and Time Zones

All times are in EDT time to prevent confusion due to time zone crossing. See the TAM8015 flight status page for this flight to view local times or setup timezone preferences in your user account.

Time Position Orientation Groundspeed Altitude Reporting Facility
EDT Latitude Longitude Course Direction KTS MPH feet Rate Location/Type
09:47PM -34.5710 -58.3890 94° East 150 173 1,300  Level FlightAware
09:48PM -34.5600 -58.3710 53° Northeast 170 196 1,800 1,200 Climbing FlightAware
09:48PM -34.5380 -58.3530 34° Northeast 219 252 2,400 1,200 Climbing FlightAware
09:48PM -34.5260 -58.3430 34° Northeast 240 276 2,700 1,920 Climbing FlightAware
09:49PM -34.5000 -58.3240 31° Northeast 267 307 3,700 3,120 Climbing FlightAware
09:49PM -34.4720 -58.3040 30° Northeast 270 311 5,300 3,480 Climbing FlightAware
09:50PM -34.4370 -58.2930 15° North 275 316 6,900 3,180 Climbing FlightAware
09:50PM -34.3970 -58.2810 14° North 287 330 8,500 3,120 Climbing FlightAware
09:51PM -34.3390 -58.2640 14° North 298 343 10,800 2,220 Climbing FlightAware
09:52PM -34.2800 -58.2460 14° North 344 396 11,700 2,160 Climbing FlightAware
09:52PM -34.2180 -58.2270 14° North 346 398 13,700 2,520 Climbing FlightAware
09:53PM -34.1550 -58.1760 34° Northeast 371 427 15,300 2,220 Climbing FlightAware
09:54PM -34.0990 -58.1270 36° Northeast 378 435 16,900 2,160 Climbing FlightAware
09:54PM -34.0410 -58.0770 36° Northeast 392 451 18,200 2,100 Climbing FlightAware
09:55PM -33.9760 -58.0200 36° Northeast 398 458 19,900 1,920 Climbing FlightAware
09:56PM -33.9150 -57.9670 36° Northeast 411 473 21,000 1,680 Climbing FlightAware
09:56PM -33.8530 -57.9130 36° Northeast 418 481 22,200 1,620 Climbing FlightAware
09:57PM -33.7790 -57.8490 36° Northeast 430 495 23,300 1,500 Climbing FlightAware
09:58PM -33.7160 -57.7950 35° Northeast 436 502 24,400 1,620 Climbing FlightAware
09:59PM -33.6420 -57.7310 36° Northeast 440 506 25,600 1,440 Climbing FlightAware
09:59PM -33.5740 -57.6720 36° Northeast 448 516 26,500 1,320 Climbing FlightAware
10:00PM -33.5080 -57.6160 35° Northeast 453 521 27,400 1,320 Climbing FlightAware
10:01PM -33.4310 -57.5500 36° Northeast 460 529 28,400 1,260 Climbing FlightAware
10:01PM -33.3510 -57.4810 36° Northeast 466 536 29,300 1,020 Climbing FlightAware
10:02PM -33.2800 -57.4200 36° Northeast 474 545 29,900 900 Climbing FlightAware
10:03PM -33.1980 -57.3510 35° Northeast 481 554 30,600 600 Climbing FlightAware
10:04PM -33.1320 -57.2950 35° Northeast 483 556 30,800 120 Climbing FlightAware
10:04PM -33.0690 -57.2430 35° Northeast 483 556 30,800  Level FlightAware
10:05PM -33.0070 -57.1910 35° Northeast 483 556 30,800 2,040 Level FlightAware
10:05PM -32.9200 -57.1160 36° Northeast 487 560 33,400 1,680 Climbing FlightAware
10:06PM -32.8320 -57.0430 35° Northeast 487 560 33,400  Level FlightAware
10:07PM -32.7700 -56.9900 36° Northeast 487 560 33,400 1,680 Level FlightAware
10:08PM -32.6890 -56.9220 35° Northeast 478 550 35,500 1,440 Climbing FlightAware
10:08PM -32.6120 -56.8580 35° Northeast 478 550 35,500  Level FlightAware
10:09PM -32.5510 -56.8070 35° Northeast 478 550 35,500  Level FlightAware
10:10PM -32.4890 -56.7560 35° Northeast 478 550 35,500  Level FlightAware
10:10PM -32.4270 -56.7040 35° Northeast 478 550 35,500  Level FlightAware
10:11PM -32.3660 -56.6530 35° Northeast 478 550 35,500  Level FlightAware
10:12PM -32.2890 -56.5900 35° Northeast 478 550 35,500  Level FlightAware
10:13PM -32.2270 -56.5390 35° Northeast 478 550 35,500  Level FlightAware
10:13PM -32.1660 -56.4880 35° Northeast 478 550 35,500  Level FlightAware
10:14PM -32.1040 -56.4370 35° Northeast 478 550 35,500  Level FlightAware
10:15PM -32.0420 -56.3860 35° Northeast 478 550 35,500  Level FlightAware
10:15PM -31.9650 -56.3220 35° Northeast 478 550 35,500  Level FlightAware
10:16PM -31.9040 -56.2710 35° Northeast 478 550 35,500  Level FlightAware
10:17PM -31.8420 -56.2210 34° Northeast 478 550 35,500 180 Level FlightAware
10:19PM -31.7215 -56.0630 48° Northeast  Level Estimated
10:20PM -31.6512 -55.9712 48° Northeast  Level Estimated
10:21PM -31.5809 -55.8796 48° Northeast  Level Estimated
10:22PM -31.5105 -55.7880 48° Northeast  Level Estimated
10:23PM -31.4400 -55.6966 48° Northeast  Level Estimated
10:23PM -31.0580 -55.4340 48° Northeast 488 562 37,000  Level FlightAware
10:24PM -30.9810 -55.3150 53° Northeast 487 560 37,000  Level FlightAware
10:25PM -30.9270 -55.2300 53° Northeast 487 560 37,000  Level FlightAware
10:26PM -30.8670 -55.1390 52° Northeast 488 562 37,000  Level FlightAware
10:26PM -30.8120 -55.0550 53° Northeast 491 565 37,000  Level FlightAware
10:27PM -30.7500 -54.9600 53° Northeast 491 565 37,000  Level FlightAware
10:28PM -30.6940 -54.8740 53° Northeast 491 565 37,000  Level FlightAware
10:29PM -30.6340 -54.7830 53° Northeast 493 567 37,000  Level FlightAware
10:29PM -30.5790 -54.6990 53° Northeast 493 567 37,000  Level FlightAware
10:30PM -30.5230 -54.6140 53° Northeast 494 568 37,000  Level FlightAware
10:31PM -30.4600 -54.5180 53° Northeast 495 570 37,000  Level FlightAware
10:31PM -30.4020 -54.4320 52° Northeast 497 572 37,000  Level FlightAware
10:32PM -30.3430 -54.3420 53° Northeast 499 574 37,000  Level FlightAware
10:33PM -30.2850 -54.2550 52° Northeast 499 574 37,000  Level FlightAware
10:33PM -30.2270 -54.1670 53° Northeast 499 574 37,000  Level FlightAware
10:34PM -30.1650 -54.0750 52° Northeast 498 573 37,000  Level FlightAware
10:35PM -30.1080 -53.9890 53° Northeast 496 571 37,000  Level FlightAware
10:35PM -30.0520 -53.9070 52° Northeast 494 568 37,000  Level FlightAware
10:36PM -29.9880 -53.8120 52° Northeast 493 567 37,000  Level FlightAware
10:37PM -29.9330 -53.7290 53° Northeast 492 566 37,000  Level FlightAware
10:38PM -29.8710 -53.6370 52° Northeast 492 566 37,000  Level FlightAware
10:38PM -29.8150 -53.5540 52° Northeast 493 567 37,000  Level FlightAware
10:39PM -29.7590 -53.4720 52° Northeast 493 567 37,000  Level FlightAware
10:40PM -29.6940 -53.3770 52° Northeast 492 566 37,000  Level FlightAware
10:40PM -29.6380 -53.2940 52° Northeast 492 566 37,000  Level FlightAware
10:41PM -29.5780 -53.2060 52° Northeast 493 567 37,000  Level FlightAware
10:42PM -29.5200 -53.1220 52° Northeast 493 567 37,000  Level FlightAware
10:42PM -29.4640 -53.0400 52° Northeast 494 568 37,000  Level FlightAware
10:43PM -29.3980 -52.9450 51° Northeast 495 570 37,000  Level FlightAware
10:44PM -29.3410 -52.8610 52° Northeast 492 566 37,000  Level FlightAware
10:45PM -29.2790 -52.7720 51° Northeast 491 565 37,000 -120 Level FlightAware
10:45PM -29.2230 -52.6910 52° Northeast 491 565 36,900  Descending FlightAware
10:46PM -29.1670 -52.6090 52° Northeast 491 565 37,000 60 Climbing FlightAware
10:47PM -29.1010 -52.5150 51° Northeast 490 564 37,000  Level FlightAware
10:47PM -29.0470 -52.4370 52° Northeast 487 560 37,000  Level FlightAware
10:48PM -28.9830 -52.3450 52° Northeast 486 559 37,000 -120 Level FlightAware
10:49PM -28.9280 -52.2660 52° Northeast 486 559 36,900  Descending FlightAware
10:49PM -28.8720 -52.1860 51° Northeast 488 562 37,000 60 Climbing FlightAware
10:50PM -28.8070 -52.0940 51° Northeast 490 564 37,000  Level FlightAware
10:51PM -28.7510 -52.0140 51° Northeast 490 564 37,000  Level FlightAware
10:52PM -28.6930 -51.9320 51° Northeast 490 564 37,000  Level FlightAware
10:52PM -28.6310 -51.8440 51° Northeast 492 566 37,000  Level FlightAware
10:53PM -28.5730 -51.7620 51° Northeast 492 566 37,000  Level FlightAware
10:54PM -28.5080 -51.6710 51° Northeast 490 564 37,000  Level FlightAware
10:54PM -28.4510 -51.5910 51° Northeast 491 565 37,000  Level FlightAware
10:55PM -28.3950 -51.5110 52° Northeast 492 566 37,000  Level FlightAware
10:56PM -28.3340 -51.4260 51° Northeast 492 566 37,000  Level FlightAware
10:56PM -28.2740 -51.3420 51° Northeast 492 566 37,000  Level FlightAware
10:57PM -28.2060 -51.2470 51° Northeast 492 566 37,000  Level FlightAware
10:58PM -28.1500 -51.1680 51° Northeast 492 566 37,000  Level FlightAware
10:59PM -28.0930 -51.0900 50° Northeast 492 566 37,000  Level FlightAware
10:59PM -28.0300 -51.0020 51° Northeast 491 565 37,000  Level FlightAware
11:00PM -27.9720 -50.9210 51° Northeast 492 566 37,000  Level FlightAware
11:01PM -27.9060 -50.8300 51° Northeast 493 567 37,000  Level FlightAware
11:01PM -27.8480 -50.7500 51° Northeast 494 568 37,000  Level FlightAware
11:02PM -27.7900 -50.6690 51° Northeast 496 571 37,000  Level FlightAware
11:03PM -27.7270 -50.5820 51° Northeast 498 573 37,000  Level FlightAware
11:03PM -27.6670 -50.5010 50° Northeast 499 574 37,000  Level FlightAware
11:04PM -27.5990 -50.4080 50° Northeast 500 575 37,000  Level FlightAware
11:05PM -27.5410 -50.3280 51° Northeast 501 577 37,000  Level FlightAware
11:06PM -27.4830 -50.2490 50° Northeast 502 578 37,000  Level FlightAware
11:06PM -27.4160 -50.1580 50° Northeast 503 579 37,000  Level FlightAware
11:07PM -27.3590 -50.0810 50° Northeast 505 581 37,000  Level FlightAware
11:08PM -27.3080 -50.0120 50° Northeast 505 581 37,000  Level FlightAware
11:08PM -27.2260 -49.9000 51° Northeast 507 583 37,000  Level FlightAware
11:09PM -27.1660 -49.8190 50° Northeast 506 582 37,000  Level FlightAware
11:10PM -27.1060 -49.7380 50° Northeast 504 580 37,000  Level FlightAware
11:11PM -27.0380 -49.6470 50° Northeast 503 579 37,000  Level FlightAware
11:11PM -26.9800 -49.5680 51° Northeast 501 577 37,000  Level FlightAware
11:12PM -26.9200 -49.4880 50° Northeast 498 573 37,000  Level FlightAware
11:13PM -26.8520 -49.3970 50° Northeast 496 571 37,000 -120 Level FlightAware
11:13PM -26.7940 -49.3190 50° Northeast 498 573 36,900  Descending FlightAware
11:14PM -26.7350 -49.2410 50° Northeast 499 574 37,000 60 Climbing FlightAware
11:15PM -26.6690 -49.1530 50° Northeast 500 575 37,000  Level FlightAware
11:15PM -26.6100 -49.0750 50° Northeast 503 579 37,000  Level FlightAware
11:16PM -26.5420 -48.9850 50° Northeast 504 580 37,000  Level FlightAware
11:17PM -26.4870 -48.9110 50° Northeast 506 582 37,000  Level FlightAware
11:17PM -26.4310 -48.8370 50° Northeast 507 583 37,000  Level FlightAware
11:18PM -26.3550 -48.7380 49° Northeast 509 586 37,000  Level FlightAware
11:19PM -26.2950 -48.6590 50° Northeast 521 600 37,000  Level FlightAware
11:20PM -26.2200 -48.5600 50° Northeast 524 603 37,000  Level FlightAware
11:20PM -26.1630 -48.4850 50° Northeast 522 601 37,000  Level FlightAware
11:21PM -26.0890 -48.3990 46° Northeast 507 583 37,000 -120 Level FlightAware
11:22PM -26.0110 -48.3330 37° Northeast 504 580 36,900 -120 Descending FlightAware
11:22PM -25.9320 -48.2660 37° Northeast 505 581 36,900 60 Level FlightAware
11:23PM -25.8480 -48.1940 38° Northeast 506 582 37,000 60 Climbing FlightAware
11:24PM -25.7750 -48.1320 37° Northeast 507 583 37,000  Level FlightAware
11:25PM -25.6900 -48.0600 37° Northeast 508 585 37,000  Level FlightAware
11:25PM -25.6170 -47.9980 37° Northeast 507 583 37,000  Level FlightAware
11:26PM -25.5410 -47.9340 37° Northeast 507 583 37,000  Level FlightAware
11:27PM -25.4580 -47.8630 38° Northeast 506 582 37,000  Level FlightAware
11:27PM -25.3860 -47.8030 37° Northeast 507 583 37,000  Level FlightAware
11:28PM -25.2990 -47.7290 38° Northeast 506 582 37,000  Level FlightAware
11:29PM -25.2250 -47.6670 37° Northeast 507 583 37,000  Level FlightAware
11:29PM -25.1530 -47.6060 37° Northeast 506 582 37,000  Level FlightAware
11:30PM -25.0660 -47.5330 37° Northeast 506 582 37,000  Level FlightAware
11:31PM -24.9920 -47.4710 37° Northeast 505 581 37,000  Level FlightAware
11:32PM -24.9080 -47.4010 37° Northeast 500 575 37,000  Level FlightAware
11:32PM -24.8360 -47.3410 37° Northeast 502 578 37,000 -180 Level FlightAware
11:33PM -24.7510 -47.2710 37° Northeast 499 574 36,800 -1,320 Descending FlightAware
11:34PM -24.6790 -47.2100 38° Northeast 500 575 35,200 -2,580 Descending FlightAware
11:34PM -24.6040 -47.1480 37° Northeast 498 573 33,400 -2,400 Descending FlightAware
11:35PM -24.5210 -47.0790 37° Northeast 482 555 31,800 -1,980 Descending FlightAware
11:36PM -24.4570 -47.0260 37° Northeast 472 543 30,600 -1,920 Descending FlightAware
11:36PM -24.3850 -46.9670 37° Northeast 454 522 29,300 -2,100 Descending FlightAware
11:37PM -24.3090 -46.9040 37° Northeast 442 509 27,700 -2,280 Descending FlightAware
11:38PM -24.2640 -46.8760 30° Northeast 436 502 26,300 -4,140 Descending FlightAware
11:38PM -24.1760 -46.8490 16° North 443 510 22,200 -5,400 Descending FlightAware
11:39PM -24.0910 -46.8220 16° North 446 513 18,200 -5,100 Descending FlightAware
11:40PM -23.9990 -46.7930 16° North 419 482 14,600 -4,200 Descending FlightAware
11:41PM -23.9230 -46.7690 16° North 387 445 12,300 -2,520 Descending FlightAware
11:41PM -23.8610 -46.7490 16° North 332 382 11,300 -1,320 Descending FlightAware
11:42PM -23.8160 -46.7340 17° North 298 343 10,700 -1,620 Descending FlightAware
11:42PM -23.7740 -46.7210 16° North 282 325 9,600 -2,340 Descending FlightAware
11:43PM -23.7340 -46.7080 17° North 283 326 8,200 -2,520 Descending FlightAware
11:43PM -23.6920 -46.6950 16° North 285 328 6,900 -2,340 Descending FlightAware
11:44PM -23.6630 -46.6860 16° North 275 316 6,100 -1,920 Descending FlightAware
11:44PM -23.6340 -46.6760 18° North 277 319 5,300 -1,800 Descending FlightAware
11:45PM -23.5950 -46.6640 16° North 278 320 4,500 -900 Descending FlightAware
11:45PM -23.5640 -46.6540 16° North 257 296 4,500  Level FlightAware
11:46PM -23.5300 -46.6440 15° North 224 258 4,500  Level FlightAware
11:46PM -23.5220 -46.6410 19° North 218 251 4,500  Level FlightAware
11:46PM -23.4930 -46.6320 16° North 205 236 4,500 -120 Level FlightAware
11:47PM -23.4720 -46.6100 44° Northeast 191 220 4,400 -420 Descending FlightAware
11:47PM -23.4660 -46.5890 73° East 177 204 4,100 -840 Descending FlightAware
11:48PM -23.4610 -46.5690 75° East 165 190 3,700 -900 Descending FlightAware
11:48PM -23.4550 -46.5460 74° East 145 167 3,300 -780 Descending FlightAware
11:49PM -23.4510 -46.5300 75° East 140 161 3,000 -720 Descending FlightAware
11:49PM -23.4460 -46.5130 72° East 140 161 2,700 -720 Descending FlightAware
11:50PM -23.4380 -46.4850 73° East 138 159 2,300 -720 Descending FlightAware